createdAt,value
2019-04-26T00:00:44.890Z,0
2019-04-26T00:01:59.165Z,0
2019-04-26T00:03:13.321Z,0
2019-04-26T00:04:27.569Z,0
2019-04-26T00:05:41.639Z,0
2019-04-26T00:06:55.761Z,0
2019-04-26T00:08:09.949Z,0
2019-04-26T00:09:24.249Z,0
2019-04-26T00:10:38.310Z,0
2019-04-26T00:11:52.468Z,0
2019-04-26T00:13:06.650Z,0
2019-04-26T00:14:21.378Z,0
2019-04-26T00:15:35.048Z,0
2019-04-26T00:16:49.276Z,0
2019-04-26T00:18:03.858Z,0
2019-04-26T00:19:17.528Z,0
2019-04-26T00:20:31.711Z,0
2019-04-26T00:21:45.867Z,0
2019-04-26T00:23:00.060Z,0
2019-04-26T00:24:14.248Z,0
2019-04-26T00:25:28.915Z,0
2019-04-26T00:26:42.701Z,0
2019-04-26T00:27:56.798Z,0
2019-04-26T00:29:10.953Z,0
2019-04-26T00:30:25.132Z,0
2019-04-26T00:31:39.405Z,0
2019-04-26T00:32:53.547Z,0
2019-04-26T00:34:07.673Z,0
2019-04-26T00:35:21.850Z,0
2019-04-26T00:36:36.114Z,0
2019-04-26T00:37:50.298Z,0
2019-04-26T00:39:05.801Z,0
2019-04-26T00:40:18.570Z,0
2019-04-26T00:41:32.782Z,0
2019-04-26T00:42:46.913Z,0
2019-04-26T00:44:01.097Z,0
2019-04-26T00:45:15.286Z,0
2019-04-26T00:46:29.479Z,0
2019-04-26T00:47:43.605Z,0
2019-04-26T00:48:57.782Z,0
2019-04-26T00:50:11.952Z,0
2019-04-26T00:51:26.127Z,0
2019-04-26T00:52:40.321Z,0
2019-04-26T00:53:54.497Z,0
2019-04-26T00:55:08.672Z,0
2019-04-26T00:56:24.676Z,0
2019-04-26T00:57:37.095Z,0
2019-04-26T00:58:51.331Z,0
2019-04-26T01:00:05.656Z,0
2019-04-26T01:01:19.583Z,0
2019-04-26T01:02:33.833Z,0
2019-04-26T01:03:47.927Z,0
2019-04-26T01:05:02.171Z,0
2019-04-26T01:06:16.324Z,0
2019-04-26T01:07:30.515Z,0
2019-04-26T01:08:44.662Z,0
2019-04-26T01:09:58.851Z,0
2019-04-26T01:11:13.048Z,0
2019-04-26T01:12:27.216Z,0
2019-04-26T01:13:41.432Z,0
2019-04-26T01:14:55.594Z,0
2019-04-26T01:16:09.771Z,0
2019-04-26T01:17:24.040Z,0
2019-04-26T01:18:38.167Z,0
2019-04-26T01:19:52.316Z,0
2019-04-26T01:21:06.584Z,0
2019-04-26T01:22:20.698Z,0
2019-04-26T01:23:34.938Z,0
2019-04-26T01:24:49.140Z,0
2019-04-26T01:26:03.468Z,0
2019-04-26T01:27:17.488Z,0
2019-04-26T01:28:31.633Z,0
2019-04-26T01:29:45.867Z,0
2019-04-26T01:31:00.073Z,0
2019-04-26T01:32:14.259Z,0
2019-04-26T01:33:28.452Z,0
2019-04-26T01:34:42.573Z,0
2019-04-26T01:35:56.741Z,0
2019-04-26T01:37:10.999Z,0
2019-04-26T01:38:25.094Z,0
2019-04-26T01:39:39.254Z,0
2019-04-26T01:40:53.421Z,0
2019-04-26T01:42:07.606Z,0
2019-04-26T01:43:21.928Z,0
2019-04-26T01:44:35.956Z,0
2019-04-26T01:45:50.200Z,0
2019-04-26T01:47:06.188Z,0
2019-04-26T01:48:18.473Z,0
2019-04-26T01:49:32.788Z,0
2019-04-26T01:50:46.788Z,0
2019-04-26T01:52:00.975Z,0
2019-04-26T01:53:15.166Z,0
2019-04-26T01:54:29.381Z,0
2019-04-26T01:55:44.406Z,0
2019-04-26T01:56:57.673Z,0
2019-04-26T01:59:26.004Z,0
2019-04-26T02:00:40.224Z,0
2019-04-26T02:01:54.348Z,0
2019-04-26T02:03:08.521Z,0
2019-04-26T02:04:22.935Z,0
2019-04-26T02:05:36.868Z,0
2019-04-26T02:06:51.065Z,0
2019-04-26T02:08:05.300Z,0
2019-04-26T02:09:19.402Z,0
2019-04-26T02:10:33.563Z,0
2019-04-26T02:11:47.761Z,0
2019-04-26T02:13:01.933Z,0
2019-04-26T02:14:16.213Z,0
2019-04-26T02:15:30.352Z,0
2019-04-26T02:17:58.641Z,0
2019-04-26T02:19:12.850Z,0
2019-04-26T02:20:27.008Z,0
2019-04-26T02:21:41.212Z,0
2019-04-26T02:22:55.372Z,0
2019-04-26T02:24:09.879Z,0
2019-04-26T02:25:23.730Z,0
2019-04-26T02:26:38.007Z,0
2019-04-26T02:27:52.144Z,0
2019-04-26T02:29:06.292Z,0
2019-04-26T02:30:20.509Z,0
2019-04-26T02:31:34.629Z,0
2019-04-26T02:32:48.963Z,0
2019-04-26T02:34:02.997Z,0
2019-04-26T02:35:18.305Z,0
2019-04-26T02:36:31.373Z,0
2019-04-26T02:37:45.555Z,0
2019-04-26T02:38:59.719Z,0
2019-04-26T02:40:13.966Z,0
2019-04-26T02:41:28.063Z,0
2019-04-26T02:42:42.230Z,0
2019-04-26T02:43:56.449Z,0
2019-04-26T02:45:10.617Z,0
2019-04-26T02:46:24.970Z,0
2019-04-26T02:47:38.966Z,0
2019-04-26T02:48:53.148Z,0
2019-04-26T02:50:07.442Z,0
2019-04-26T02:51:21.531Z,0
2019-04-26T02:52:35.673Z,0
2019-04-26T02:53:49.838Z,0
2019-04-26T02:55:04.000Z,0
2019-04-26T02:56:18.344Z,0
2019-04-26T02:57:32.345Z,0
2019-04-26T02:58:46.532Z,0
2019-04-26T03:00:00.717Z,0
2019-04-26T03:01:14.948Z,0
2019-04-26T03:02:29.057Z,0
2019-04-26T03:03:43.310Z,0
2019-04-26T03:04:57.391Z,0
2019-04-26T03:06:11.567Z,0
2019-04-26T03:07:25.750Z,0
2019-04-26T03:08:39.907Z,0
2019-04-26T03:09:54.072Z,0
2019-04-26T03:11:08.341Z,0
2019-04-26T03:12:22.533Z,0
2019-04-26T03:13:36.657Z,0
2019-04-26T03:14:50.789Z,0
2019-04-26T03:16:04.947Z,0
2019-04-26T03:17:19.147Z,0
2019-04-26T03:18:33.338Z,0
2019-04-26T03:19:47.471Z,0
2019-04-26T03:21:01.677Z,0
2019-04-26T03:22:15.923Z,0
2019-04-26T03:23:29.982Z,0
2019-04-26T03:24:44.278Z,0
2019-04-26T03:25:58.819Z,0
2019-04-26T03:27:12.672Z,0
2019-04-26T03:28:26.754Z,0
2019-04-26T03:29:41.044Z,0
2019-04-26T03:30:55.042Z,0
2019-04-26T03:32:09.307Z,0
2019-04-26T03:33:23.387Z,0
2019-04-26T03:34:37.527Z,0
2019-04-26T03:35:51.773Z,0
2019-04-26T03:37:05.887Z,0
2019-04-26T03:38:20.081Z,0
2019-04-26T03:39:34.255Z,0
2019-04-26T03:40:48.498Z,0
2019-04-26T03:42:02.574Z,0
2019-04-26T03:43:16.741Z,0
2019-04-26T03:44:30.921Z,0
2019-04-26T03:45:45.114Z,0
2019-04-26T03:46:59.361Z,0
2019-04-26T03:48:13.465Z,0
2019-04-26T03:49:27.663Z,0
2019-04-26T03:50:42.897Z,0
2019-04-26T03:51:56.020Z,0
2019-04-26T03:53:10.272Z,0
2019-04-26T03:54:24.506Z,0
2019-04-26T03:55:38.582Z,0
2019-04-26T03:56:52.843Z,0
2019-04-26T03:58:06.989Z,0
2019-04-26T03:59:21.143Z,0
2019-04-26T04:00:35.313Z,0
2019-04-26T04:01:49.412Z,0
2019-04-26T04:03:03.671Z,0
2019-04-26T04:04:17.900Z,0
2019-04-26T04:05:31.948Z,0
2019-04-26T04:08:00.368Z,0
2019-04-26T04:09:14.463Z,0
2019-04-26T04:10:28.655Z,5
2019-04-26T04:11:42.812Z,5
2019-04-26T04:12:57.097Z,5
2019-04-26T04:14:11.159Z,5
2019-04-26T04:15:26.558Z,5
2019-04-26T04:16:39.504Z,5
2019-04-26T04:17:53.689Z,5
2019-04-26T04:19:07.916Z,5
2019-04-26T04:20:22.047Z,5
2019-04-26T04:21:36.314Z,5
2019-04-26T04:22:50.425Z,5
2019-04-26T04:24:04.621Z,5
2019-04-26T04:25:18.808Z,11
2019-04-26T04:26:32.956Z,11
2019-04-26T04:27:47.133Z,11
2019-04-26T04:29:01.306Z,11
2019-04-26T04:30:15.640Z,5
2019-04-26T04:31:29.751Z,5
2019-04-26T04:32:43.857Z,5
2019-04-26T04:33:58.099Z,11
2019-04-26T04:35:12.323Z,11
2019-04-26T04:36:26.573Z,11
2019-04-26T04:37:40.681Z,16
2019-04-26T04:38:54.757Z,16
2019-04-26T04:40:09.207Z,22
2019-04-26T04:41:23.106Z,22
2019-04-26T04:42:37.403Z,28
2019-04-26T04:43:51.660Z,33
2019-04-26T04:45:05.642Z,39
2019-04-26T04:46:19.832Z,45
2019-04-26T04:47:34.028Z,50
2019-04-26T04:48:48.191Z,61
2019-04-26T04:50:02.366Z,73
2019-04-26T04:51:16.556Z,78
2019-04-26T04:52:30.762Z,101
2019-04-26T04:53:44.912Z,118
2019-04-26T04:54:59.092Z,129
2019-04-26T04:57:27.436Z,163
2019-04-26T04:58:41.714Z,168
2019-04-26T04:59:55.835Z,174
2019-04-26T05:01:09.908Z,163
2019-04-26T05:02:24.173Z,151
2019-04-26T05:03:38.375Z,140
2019-04-26T05:04:52.456Z,140
2019-04-26T05:06:07.023Z,140
2019-04-26T05:07:20.828Z,135
2019-04-26T05:09:49.590Z,123
2019-04-26T05:11:03.333Z,123
2019-04-26T05:12:17.773Z,123
2019-04-26T05:13:31.683Z,112
2019-04-26T05:14:45.985Z,106
2019-04-26T05:16:03.542Z,95
2019-04-26T05:17:17.799Z,101
2019-04-26T05:18:28.423Z,106
2019-04-26T05:19:42.524Z,123
2019-04-26T05:20:56.726Z,140
2019-04-26T05:22:10.854Z,146
2019-04-26T05:23:25.655Z,146
2019-04-26T05:24:39.199Z,140
2019-04-26T05:25:53.585Z,135
2019-04-26T05:27:07.545Z,135
2019-04-26T05:28:22.037Z,135
2019-04-26T05:29:35.946Z,135
2019-04-26T05:30:50.074Z,135
2019-04-26T05:32:04.189Z,140
2019-04-26T05:33:18.385Z,151
2019-04-26T05:34:32.533Z,157
2019-04-26T05:37:00.975Z,146
2019-04-26T05:38:15.043Z,146
2019-04-26T05:39:29.217Z,151
2019-04-26T05:40:43.414Z,157
2019-04-26T05:41:57.603Z,157
2019-04-26T05:43:11.933Z,157
2019-04-26T05:44:25.909Z,146
2019-04-26T05:45:45.069Z,140
2019-04-26T05:46:54.257Z,135
2019-04-26T05:48:08.518Z,135
2019-04-26T05:49:22.594Z,135
2019-04-26T05:50:36.873Z,146
2019-04-26T05:51:50.988Z,146
2019-04-26T05:53:05.248Z,140
2019-04-26T05:54:19.314Z,129
2019-04-26T05:55:33.640Z,129
2019-04-26T05:56:50.829Z,129
2019-04-26T05:59:15.965Z,135
2019-04-26T06:00:30.155Z,146
2019-04-26T06:01:44.341Z,151
2019-04-26T06:02:58.889Z,157
2019-04-26T06:04:12.713Z,157
2019-04-26T06:05:27.031Z,157
2019-04-26T06:06:41.057Z,151
2019-04-26T06:07:55.281Z,151
2019-04-26T06:09:09.425Z,157
2019-04-26T06:10:23.587Z,151
2019-04-26T06:11:37.917Z,151
2019-04-26T06:12:51.915Z,151
2019-04-26T06:14:06.094Z,146
2019-04-26T06:15:20.270Z,135
2019-04-26T06:16:35.713Z,129
2019-04-26T06:17:49.015Z,129
2019-04-26T06:19:02.736Z,140
2019-04-26T06:20:16.981Z,151
2019-04-26T06:21:31.075Z,168
2019-04-26T06:22:45.245Z,174
2019-04-26T06:23:59.406Z,180
2019-04-26T06:25:13.566Z,180
2019-04-26T06:26:27.715Z,174
2019-04-26T06:27:41.913Z,163
2019-04-26T06:28:56.053Z,146
2019-04-26T06:30:10.222Z,135
2019-04-26T06:31:24.399Z,129
2019-04-26T06:32:38.681Z,123
2019-04-26T06:33:52.769Z,123
2019-04-26T06:35:07.125Z,129
2019-04-26T06:36:21.087Z,140
2019-04-26T06:37:35.323Z,146
2019-04-26T06:38:49.551Z,151
2019-04-26T06:40:03.695Z,151
2019-04-26T06:41:17.795Z,146
2019-04-26T06:42:31.951Z,129
2019-04-26T06:43:46.231Z,112
2019-04-26T06:45:00.294Z,112
2019-04-26T06:46:14.469Z,106
2019-04-26T06:47:28.644Z,106
2019-04-26T06:48:42.823Z,106
2019-04-26T06:49:57.184Z,106
2019-04-26T06:51:11.196Z,118
2019-04-26T06:52:25.377Z,123
2019-04-26T06:53:39.682Z,123
2019-04-26T06:54:53.776Z,135
2019-04-26T06:56:09.709Z,151
2019-04-26T06:57:22.087Z,168
2019-04-26T06:58:36.305Z,196
2019-04-26T06:59:50.584Z,219
2019-04-26T07:01:04.646Z,241
2019-04-26T07:02:18.834Z,275
2019-04-26T07:03:33.014Z,309
2019-04-26T07:04:47.193Z,343
2019-04-26T07:06:01.482Z,348
2019-04-26T07:07:19.489Z,343
2019-04-26T07:08:29.840Z,354
2019-04-26T07:09:44.028Z,393
2019-04-26T07:10:58.061Z,427
2019-04-26T07:12:12.234Z,450
2019-04-26T07:13:26.439Z,438
2019-04-26T07:14:40.796Z,410
2019-04-26T07:15:54.758Z,393
2019-04-26T07:17:08.922Z,399
2019-04-26T07:18:23.135Z,388
2019-04-26T07:19:38.267Z,360
2019-04-26T07:20:51.786Z,320
2019-04-26T07:22:05.647Z,292
2019-04-26T07:23:20.407Z,281
2019-04-26T07:24:33.951Z,281
2019-04-26T07:25:48.210Z,298
2019-04-26T07:27:02.298Z,303
2019-04-26T07:28:16.443Z,292
2019-04-26T07:29:30.690Z,286
2019-04-26T07:30:44.850Z,315
2019-04-26T07:31:58.930Z,331
2019-04-26T07:33:13.151Z,343
2019-04-26T07:34:27.391Z,326
2019-04-26T07:35:41.447Z,298
2019-04-26T07:36:55.684Z,298
2019-04-26T07:38:09.785Z,292
2019-04-26T07:39:23.962Z,275
2019-04-26T07:40:38.197Z,264
2019-04-26T07:41:52.298Z,275
2019-04-26T07:43:06.559Z,286
2019-04-26T07:44:20.651Z,309
2019-04-26T07:45:35.106Z,320
2019-04-26T07:46:48.990Z,354
2019-04-26T07:48:03.256Z,405
2019-04-26T07:49:17.320Z,444
2019-04-26T07:50:31.493Z,483
2019-04-26T07:51:45.642Z,528
2019-04-26T07:52:59.946Z,556
2019-04-26T07:54:18.657Z,562
2019-04-26T07:55:28.299Z,556
2019-04-26T07:56:42.742Z,534
2019-04-26T07:57:56.542Z,545
2019-04-26T07:59:10.655Z,568
2019-04-26T08:00:24.773Z,562
2019-04-26T08:01:38.965Z,573
2019-04-26T08:02:53.896Z,607
2019-04-26T08:04:07.235Z,585
2019-04-26T08:05:21.606Z,568
2019-04-26T08:06:35.581Z,545
2019-04-26T08:07:49.882Z,438
2019-04-26T08:09:03.888Z,405
2019-04-26T08:10:18.128Z,399
2019-04-26T08:11:34.696Z,466
2019-04-26T08:12:49.130Z,523
2019-04-26T08:14:04.205Z,624
2019-04-26T08:15:14.674Z,714
2019-04-26T08:16:28.860Z,725
2019-04-26T08:17:43.701Z,641
2019-04-26T08:18:57.230Z,601
2019-04-26T08:20:11.327Z,596
2019-04-26T08:21:25.460Z,562
2019-04-26T08:22:39.619Z,450
2019-04-26T08:23:53.946Z,472
2019-04-26T08:25:07.951Z,483
2019-04-26T08:26:22.364Z,450
2019-04-26T08:27:36.558Z,478
2019-04-26T08:28:50.547Z,523
2019-04-26T08:30:04.609Z,573
2019-04-26T08:31:18.805Z,573
2019-04-26T08:32:32.982Z,551
2019-04-26T08:33:47.122Z,556
2019-04-26T08:35:01.486Z,585
2019-04-26T08:36:15.694Z,624
2019-04-26T08:37:29.554Z,590
2019-04-26T08:38:43.706Z,562
2019-04-26T08:39:57.869Z,528
2019-04-26T08:41:11.992Z,506
2019-04-26T08:42:26.150Z,461
2019-04-26T08:43:40.349Z,416
2019-04-26T08:44:54.454Z,399
2019-04-26T08:46:08.745Z,388
2019-04-26T08:47:22.809Z,382
2019-04-26T08:48:36.960Z,393
2019-04-26T08:49:51.087Z,410
2019-04-26T08:51:05.303Z,410
2019-04-26T08:52:19.446Z,393
2019-04-26T08:53:33.616Z,405
2019-04-26T08:54:50.575Z,455
2019-04-26T08:56:03.776Z,511
2019-04-26T08:57:15.993Z,545
2019-04-26T08:58:30.137Z,540
2019-04-26T08:59:44.467Z,528
2019-04-26T09:00:58.451Z,523
2019-04-26T09:02:12.739Z,523
2019-04-26T09:04:40.955Z,568
2019-04-26T09:05:55.501Z,613
2019-04-26T09:07:09.286Z,652
2019-04-26T09:08:23.540Z,714
2019-04-26T09:09:37.579Z,793
2019-04-26T09:10:51.748Z,916
2019-04-26T09:12:06.209Z,1018
2019-04-26T09:13:20.026Z,1091
2019-04-26T09:14:34.308Z,1108
2019-04-26T09:15:48.420Z,1119
2019-04-26T09:17:02.474Z,1102
2019-04-26T09:18:16.661Z,1085
2019-04-26T09:19:30.845Z,1102
2019-04-26T09:20:45.005Z,1113
2019-04-26T09:22:00.880Z,1186
2019-04-26T09:23:13.286Z,1175
2019-04-26T09:24:27.396Z,1040
2019-04-26T09:25:42.453Z,922
2019-04-26T09:26:55.743Z,916
2019-04-26T09:28:09.933Z,900
2019-04-26T09:29:23.980Z,849
2019-04-26T09:30:38.328Z,793
2019-04-26T09:31:52.370Z,810
2019-04-26T09:33:06.482Z,888
2019-04-26T09:34:20.632Z,978
2019-04-26T09:35:34.794Z,1029
2019-04-26T09:38:03.113Z,939
2019-04-26T09:39:17.155Z,945
2019-04-26T09:40:31.366Z,1018
2019-04-26T09:41:50.123Z,1102
2019-04-26T09:42:59.580Z,1102
2019-04-26T09:44:13.682Z,1046
2019-04-26T09:45:27.816Z,1029
2019-04-26T09:46:42.067Z,990
2019-04-26T09:49:10.287Z,990
2019-04-26T09:50:24.500Z,1001
2019-04-26T09:51:40.137Z,995
2019-04-26T09:52:54.445Z,1001
2019-04-26T09:54:07.101Z,1057
2019-04-26T09:55:21.173Z,1147
2019-04-26T09:56:35.416Z,1130
2019-04-26T09:57:49.283Z,1051
2019-04-26T09:59:05.313Z,995
2019-04-26T10:00:20.364Z,950
2019-04-26T10:01:31.600Z,956
2019-04-26T10:02:45.759Z,961
2019-04-26T10:03:59.903Z,990
2019-04-26T10:05:14.040Z,1029
2019-04-26T10:06:28.252Z,984
2019-04-26T10:07:42.284Z,967
2019-04-26T10:08:56.487Z,945
2019-04-26T10:10:10.594Z,894
2019-04-26T10:11:24.683Z,860
2019-04-26T10:12:38.823Z,860
2019-04-26T10:13:52.957Z,990
2019-04-26T10:15:07.133Z,1181
2019-04-26T10:16:21.285Z,1243
2019-04-26T10:18:49.488Z,1327
2019-04-26T10:20:03.623Z,1400
2019-04-26T10:21:17.761Z,1496
2019-04-26T10:22:31.895Z,1501
2019-04-26T10:23:46.130Z,1513
2019-04-26T10:26:14.717Z,1153
2019-04-26T10:27:28.381Z,956
2019-04-26T10:28:42.479Z,860
2019-04-26T10:31:10.767Z,900
2019-04-26T10:32:24.837Z,900
2019-04-26T10:33:38.930Z,939
2019-04-26T10:34:53.145Z,961
2019-04-26T10:36:07.312Z,973
2019-04-26T10:37:21.320Z,950
2019-04-26T10:38:35.473Z,928
2019-04-26T10:39:49.525Z,961
2019-04-26T10:41:03.623Z,1001
2019-04-26T10:42:17.818Z,1035
2019-04-26T10:43:36.718Z,1080
2019-04-26T10:44:46.025Z,1102
2019-04-26T10:46:00.191Z,1130
2019-04-26T10:47:14.353Z,1170
2019-04-26T10:48:28.395Z,1215
2019-04-26T10:49:42.665Z,1215
2019-04-26T10:50:56.725Z,1215
2019-04-26T10:52:10.709Z,1164
2019-04-26T10:53:24.885Z,1102
2019-04-26T10:54:38.936Z,1051
2019-04-26T10:55:53.467Z,961
2019-04-26T10:58:21.327Z,798
2019-04-26T10:59:35.455Z,753
2019-04-26T11:00:49.577Z,742
2019-04-26T11:02:03.703Z,815
2019-04-26T11:03:17.797Z,855
2019-04-26T11:04:35.216Z,860
2019-04-26T11:05:46.281Z,815
2019-04-26T11:07:00.208Z,793
2019-04-26T11:08:14.339Z,810
2019-04-26T11:09:28.396Z,793
2019-04-26T11:10:42.734Z,742
2019-04-26T11:11:56.841Z,753
2019-04-26T11:13:10.823Z,793
2019-04-26T11:14:24.918Z,877
2019-04-26T11:15:39.020Z,933
2019-04-26T11:16:53.238Z,961
2019-04-26T11:18:08.070Z,956
2019-04-26T11:19:21.565Z,933
2019-04-26T11:20:35.551Z,894
2019-04-26T11:21:52.269Z,871
2019-04-26T11:23:07.168Z,860
2019-04-26T11:24:17.993Z,871
2019-04-26T11:25:37.734Z,922
2019-04-26T11:28:00.274Z,900
2019-04-26T11:29:14.435Z,781
2019-04-26T11:30:28.562Z,697
2019-04-26T11:31:42.626Z,720
2019-04-26T11:32:56.757Z,731
2019-04-26T11:34:10.891Z,765
2019-04-26T11:35:25.028Z,714
2019-04-26T11:36:39.228Z,753
2019-04-26T11:37:53.473Z,787
2019-04-26T11:39:07.764Z,787
2019-04-26T11:40:21.638Z,821
2019-04-26T11:41:35.732Z,832
2019-04-26T11:42:49.944Z,826
2019-04-26T11:44:04.056Z,843
2019-04-26T11:45:18.161Z,888
2019-04-26T11:46:32.231Z,978
2019-04-26T11:47:46.451Z,1102
2019-04-26T11:49:00.473Z,1237
2019-04-26T11:50:14.706Z,1372
2019-04-26T11:51:28.794Z,1468
2019-04-26T11:52:42.969Z,1507
2019-04-26T11:53:57.029Z,1479
2019-04-26T11:55:11.102Z,1445
2019-04-26T11:56:26.558Z,1468
2019-04-26T11:57:39.314Z,1473
2019-04-26T11:58:53.462Z,1468
2019-04-26T12:00:07.540Z,1518
2019-04-26T12:01:21.848Z,1580
2019-04-26T12:02:35.699Z,1839
2019-04-26T12:03:49.819Z,2210
2019-04-26T12:05:03.915Z,1980
2019-04-26T12:06:18.016Z,2092
2019-04-26T12:07:32.187Z,1957
2019-04-26T12:08:46.197Z,1805
2019-04-26T12:10:00.264Z,1800
2019-04-26T12:11:14.392Z,1687
2019-04-26T12:12:28.456Z,1676
2019-04-26T12:13:43.025Z,1940
2019-04-26T12:14:56.622Z,2086
2019-04-26T12:16:10.965Z,1777
2019-04-26T12:17:24.815Z,1749
2019-04-26T12:18:38.905Z,1496
2019-04-26T12:19:53.103Z,1411
2019-04-26T12:22:21.203Z,1485
2019-04-26T12:23:35.996Z,1271
2019-04-26T12:24:49.384Z,1080
2019-04-26T12:27:17.662Z,1068
2019-04-26T12:28:31.660Z,1248
2019-04-26T12:29:45.762Z,1344
2019-04-26T12:31:00.206Z,1383
2019-04-26T12:32:13.971Z,1400
2019-04-26T12:33:28.316Z,1288
2019-04-26T12:34:42.214Z,1125
2019-04-26T12:35:56.293Z,1006
2019-04-26T12:37:10.367Z,945
2019-04-26T12:38:24.475Z,950
2019-04-26T12:39:38.631Z,956
2019-04-26T12:40:53.047Z,933
2019-04-26T12:42:06.968Z,894
2019-04-26T12:43:20.944Z,900
2019-04-26T12:44:35.069Z,883
2019-04-26T12:45:49.174Z,804
2019-04-26T12:47:03.384Z,736
2019-04-26T12:48:20.354Z,725
2019-04-26T12:49:31.495Z,765
2019-04-26T12:50:45.627Z,815
2019-04-26T12:51:59.786Z,916
2019-04-26T12:54:28.077Z,905
2019-04-26T12:55:47.938Z,855
2019-04-26T12:57:00.828Z,821
2019-04-26T12:59:24.497Z,781
2019-04-26T13:00:38.876Z,787
2019-04-26T13:01:52.780Z,821
2019-04-26T13:03:07.179Z,855
2019-04-26T13:04:20.977Z,877
2019-04-26T13:05:35.183Z,916
2019-04-26T13:06:49.272Z,961
2019-04-26T13:08:03.437Z,1001
2019-04-26T13:09:17.499Z,1046
2019-04-26T13:10:31.658Z,1074
2019-04-26T13:11:45.773Z,1085
2019-04-26T13:12:59.930Z,1091
2019-04-26T13:14:13.984Z,1119
2019-04-26T13:15:28.069Z,1108
2019-04-26T13:16:42.274Z,1068
2019-04-26T13:17:56.288Z,1012
2019-04-26T13:19:10.462Z,978
2019-04-26T13:20:24.502Z,967
2019-04-26T13:21:38.920Z,978
2019-04-26T13:22:52.795Z,1012
2019-04-26T13:24:07.398Z,1035
2019-04-26T13:26:35.947Z,1119
2019-04-26T13:27:49.219Z,1175
2019-04-26T13:29:03.505Z,1248
2019-04-26T13:30:17.468Z,1423
2019-04-26T13:31:31.533Z,1569
2019-04-26T13:32:45.622Z,1766
2019-04-26T13:33:59.750Z,1670
2019-04-26T13:35:13.993Z,1479
2019-04-26T13:36:27.947Z,1490
2019-04-26T13:37:42.030Z,1434
2019-04-26T13:38:56.167Z,1378
2019-04-26T13:40:10.327Z,1417
2019-04-26T13:41:24.421Z,1333
2019-04-26T13:42:38.497Z,1445
2019-04-26T13:43:52.636Z,1136
2019-04-26T13:45:06.635Z,1113
2019-04-26T13:46:20.730Z,1068
2019-04-26T13:47:34.825Z,1012
2019-04-26T13:48:48.954Z,1001
2019-04-26T13:50:03.034Z,1063
2019-04-26T13:51:17.155Z,1102
2019-04-26T13:52:31.332Z,1231
2019-04-26T13:53:45.361Z,1316
2019-04-26T13:54:59.458Z,1237
2019-04-26T13:56:23.423Z,1220
2019-04-26T13:57:27.711Z,1141
2019-04-26T13:58:41.861Z,1170
2019-04-26T13:59:56.222Z,1186
2019-04-26T14:01:10.203Z,1046
2019-04-26T14:02:24.126Z,995
2019-04-26T14:03:38.329Z,973
2019-04-26T14:04:52.383Z,1051
2019-04-26T14:06:06.583Z,1125
2019-04-26T14:07:20.706Z,1080
2019-04-26T14:08:34.678Z,922
2019-04-26T14:09:48.896Z,905
2019-04-26T14:11:03.002Z,1035
2019-04-26T14:13:31.105Z,1068
2019-04-26T14:14:45.214Z,1158
2019-04-26T14:15:59.370Z,1276
2019-04-26T14:17:13.420Z,2390
2019-04-26T14:18:27.511Z,1884
2019-04-26T14:19:41.612Z,1608
2019-04-26T14:20:55.701Z,1608
2019-04-26T14:22:10.090Z,1226
2019-04-26T14:23:23.934Z,1068
2019-04-26T14:24:38.008Z,956
2019-04-26T14:25:55.470Z,855
2019-04-26T14:27:06.282Z,821
2019-04-26T14:28:20.751Z,826
2019-04-26T14:29:34.393Z,838
2019-04-26T14:30:48.499Z,832
2019-04-26T14:32:03.169Z,821
2019-04-26T14:33:16.715Z,843
2019-04-26T14:34:30.874Z,894
2019-04-26T14:35:44.943Z,905
2019-04-26T14:36:59.027Z,894
2019-04-26T14:38:13.147Z,883
2019-04-26T14:39:27.305Z,1046
2019-04-26T14:40:41.366Z,1991
2019-04-26T14:41:55.521Z,1462
2019-04-26T14:43:09.702Z,1771
2019-04-26T14:44:23.705Z,1417
2019-04-26T14:45:37.809Z,1243
2019-04-26T14:46:51.921Z,1074
2019-04-26T14:48:06.035Z,973
2019-04-26T14:49:20.216Z,1006
2019-04-26T14:50:34.241Z,1125
2019-04-26T14:51:48.499Z,1265
2019-04-26T14:53:02.399Z,2109
2019-04-26T14:54:16.651Z,1777
2019-04-26T14:55:30.640Z,1546
2019-04-26T14:56:44.775Z,1428
2019-04-26T14:57:58.780Z,1276
2019-04-26T14:59:13.311Z,1434
2019-04-26T15:00:27.049Z,1040
2019-04-26T15:01:41.124Z,950
2019-04-26T15:02:55.197Z,933
2019-04-26T15:04:09.469Z,995
2019-04-26T15:05:23.379Z,1141
2019-04-26T15:06:37.498Z,1035
2019-04-26T15:07:51.590Z,978
2019-04-26T15:09:05.701Z,978
2019-04-26T15:10:19.807Z,956
2019-04-26T15:11:33.959Z,956
2019-04-26T15:12:48.055Z,928
2019-04-26T15:14:02.194Z,855
2019-04-26T15:15:16.253Z,826
2019-04-26T15:16:30.355Z,765
2019-04-26T15:17:44.483Z,720
2019-04-26T15:18:58.579Z,686
2019-04-26T15:20:12.711Z,669
2019-04-26T15:21:26.833Z,658
2019-04-26T15:22:40.986Z,652
2019-04-26T15:23:55.054Z,641
2019-04-26T15:25:09.135Z,635
2019-04-26T15:26:28.015Z,641
2019-04-26T15:27:37.596Z,663
2019-04-26T15:28:51.724Z,680
2019-04-26T15:30:05.770Z,691
2019-04-26T15:31:19.707Z,697
2019-04-26T15:32:34.542Z,703
2019-04-26T15:33:48.239Z,748
2019-04-26T15:35:02.064Z,810
2019-04-26T15:36:16.139Z,849
2019-04-26T15:37:30.292Z,843
2019-04-26T15:38:44.565Z,888
2019-04-26T15:39:58.550Z,894
2019-04-26T15:41:12.620Z,900
2019-04-26T15:42:26.744Z,933
2019-04-26T15:43:40.897Z,973
2019-04-26T15:44:55.011Z,1046
2019-04-26T15:46:09.109Z,1175
2019-04-26T15:47:23.259Z,1440
2019-04-26T15:48:37.360Z,1625
2019-04-26T15:51:05.559Z,1833
2019-04-26T15:52:19.628Z,1940
2019-04-26T15:53:33.696Z,1963
2019-04-26T15:54:47.831Z,1777
2019-04-26T15:57:20.396Z,1423
2019-04-26T15:58:30.204Z,1181
2019-04-26T15:59:44.268Z,956
2019-04-26T16:00:58.320Z,826
2019-04-26T16:02:12.516Z,826
2019-04-26T16:04:40.561Z,815
2019-04-26T16:05:54.765Z,810
2019-04-26T16:07:08.806Z,826
2019-04-26T16:08:22.871Z,871
2019-04-26T16:09:36.968Z,916
2019-04-26T16:10:51.099Z,922
2019-04-26T16:12:05.242Z,928
2019-04-26T16:13:19.314Z,945
2019-04-26T16:14:33.488Z,950
2019-04-26T16:15:47.552Z,928
2019-04-26T16:17:01.641Z,928
2019-04-26T16:18:20.408Z,922
2019-04-26T16:19:29.827Z,933
2019-04-26T16:20:43.990Z,922
2019-04-26T16:21:58.029Z,905
2019-04-26T16:23:12.141Z,888
2019-04-26T16:24:26.274Z,888
2019-04-26T16:25:40.374Z,900
2019-04-26T16:26:54.530Z,883
2019-04-26T16:28:08.580Z,883
2019-04-26T16:29:22.700Z,877
2019-04-26T16:30:36.979Z,821
2019-04-26T16:31:50.801Z,815
2019-04-26T16:33:04.985Z,793
2019-04-26T16:34:18.971Z,1006
2019-04-26T16:35:33.136Z,1192
2019-04-26T16:36:47.183Z,1406
2019-04-26T16:38:01.702Z,1485
2019-04-26T16:40:29.480Z,1220
2019-04-26T16:41:43.541Z,1164
2019-04-26T16:42:57.688Z,1265
2019-04-26T16:44:11.708Z,1231
2019-04-26T16:45:25.870Z,1209
2019-04-26T16:46:39.874Z,1254
2019-04-26T16:49:08.068Z,1018
2019-04-26T16:50:22.276Z,843
2019-04-26T16:51:36.538Z,630
2019-04-26T16:52:50.461Z,551
2019-04-26T16:54:04.524Z,528
2019-04-26T16:55:18.553Z,556
2019-04-26T16:56:32.710Z,562
2019-04-26T16:57:46.715Z,568
2019-04-26T16:59:00.827Z,590
2019-04-26T17:01:29.080Z,613
2019-04-26T17:02:43.450Z,641
2019-04-26T17:03:57.247Z,613
2019-04-26T17:05:11.461Z,635
2019-04-26T17:06:25.454Z,680
2019-04-26T17:07:39.617Z,708
2019-04-26T17:08:53.698Z,736
2019-04-26T17:10:07.810Z,753
2019-04-26T17:11:21.924Z,770
2019-04-26T17:12:36.107Z,781
2019-04-26T17:13:50.192Z,731
2019-04-26T17:15:04.227Z,652
2019-04-26T17:16:18.355Z,618
2019-04-26T17:17:35.340Z,613
2019-04-26T17:18:50.804Z,601
2019-04-26T17:20:00.695Z,725
2019-04-26T17:21:19.987Z,714
2019-04-26T17:22:29.029Z,635
2019-04-26T17:23:44.290Z,601
2019-04-26T17:24:57.377Z,568
2019-04-26T17:26:12.736Z,545
2019-04-26T17:27:25.324Z,517
2019-04-26T17:28:39.427Z,517
2019-04-26T17:29:53.555Z,495
2019-04-26T17:31:07.660Z,466
2019-04-26T17:32:21.796Z,466
2019-04-26T17:33:35.874Z,489
2019-04-26T17:34:50.016Z,500
2019-04-26T17:36:04.113Z,478
2019-04-26T17:37:19.846Z,444
2019-04-26T17:38:32.372Z,410
2019-04-26T17:39:46.499Z,376
2019-04-26T17:41:00.640Z,360
2019-04-26T17:43:28.879Z,348
2019-04-26T17:44:43.070Z,343
2019-04-26T17:45:57.174Z,331
2019-04-26T17:47:11.324Z,326